Latest Weather Observations for Canberra

IDN60901

Issued at 7:14 pm EDT Tuesday 31 March 2015 (issued every 10 minutes, with the page automatically refreshed every 10 minutes)

About weather observations | Map of Canberra area stations | Latest observations for Canberra area | Other Formats
Station Details ID: 070351 Name: CANBERRA AIRPORT Lat: -35.31 Lon: 149.20 Height: 577.05 m
Data from the previous 72 hours. | See also: Recent months at Canberra
Date/Time
EDT
Tmp

°C
App
Tmp
°C
Dew
Point
°C
Rel
Hum
%
Delta-T

°C
Wind Press
QNH
hPa
Press
MSL
hPa
Rain
since
9 am
mm
Dir
 
Spd
km/h
Gust
km/h
Spd
kts
Gust
kts
31/07:00pm 20.3 16.9 10.7 54 5.4 ENE 19 28 10 15 1025.1 - 0.0
31/06:30pm 21.5 18.4 10.3 49 6.2 ENE 17 26 9 14 1024.9 - 0.0
31/05:30pm 23.8 20.3 8.6 38 8.3 NE 17 26 9 14 1024.4 - 0.0
31/05:00pm 23.8 20.7 7.4 35 8.8 ENE 13 19 7 10 1024.5 - 0.0
31/04:30pm 24.8 21.0 7.4 33 9.4 E 17 22 9 12 1024.6 - 0.0
31/04:00pm 24.1 20.5 6.8 33 9.2 ENE 15 24 8 13 1025.0 - 0.0
31/03:30pm 23.7 20.7 7.8 36 8.6 E 13 24 7 13 1025.3 - 0.0
31/03:00pm 23.3 19.9 6.1 33 9.0 ENE 13 20 7 11 1025.7 1024.1 0.0
31/02:30pm 24.4 21.3 7.1 33 9.2 NNE 13 20 7 11 1025.9 - 0.0
31/01:30pm 23.2 20.5 7.3 36 8.5 E 11 20 6 11 1026.9 - 0.0
31/01:00pm 23.7 20.4 8.2 37 8.4 NE 15 20 8 11 1027.3 - 0.0
31/12:30pm 22.8 19.0 7.4 37 8.2 ENE 17 28 9 15 1027.8 - 0.0
31/12:00pm 22.6 20.1 8.0 39 7.8 NE 11 19 6 10 1028.0 1026.4 0.0
31/11:30am 21.3 19.0 7.5 41 7.3 NW 9 13 5 7 1028.5 - 0.0
31/11:00am 20.5 17.8 7.5 43 6.8 W 11 15 6 8 1028.5 - 0.0
31/10:30am 18.5 16.2 7.3 48 5.8 SW 9 13 5 7 1028.6 - 0.0
31/10:00am 17.0 15.2 7.1 52 5.1 SE 6 9 3 5 1028.6 - 0.0
31/09:30am 15.2 12.8 7.0 58 4.2 SE 9 13 5 7 1028.7 - 0.0
31/09:00am 13.2 10.7 6.5 64 3.3 SSE 9 15 5 8 1028.5 1026.8 0.0
31/08:30am 11.4 9.4 6.1 70 2.6 SE 6 13 3 7 1028.1 - 0.0
31/08:00am 10.1 8.8 6.1 76 1.9 SW 2 7 1 4 1027.9 - 0.0
31/07:30am 8.9 6.2 5.8 81 1.5 E 9 13 5 7 1027.6 - 0.0
31/07:00am 9.2 6.5 5.8 79 1.6 E 9 15 5 8 1027.3 - 0.0
31/06:30am 9.2 6.5 5.8 79 1.6 ESE 9 13 5 7 1027.1 - 0.0
31/06:00am 9.7 6.3 6.1 78 1.7 E 13 17 7 9 1026.7 1025.0 0.0
31/05:30am 10.0 7.5 6.7 80 1.6 SE 9 13 5 7 1026.4 - 0.0
31/05:00am 8.1 5.9 6.2 88 0.9 SSE 7 9 4 5 1026.3 - 0.0
31/04:30am 7.6 6.2 5.7 88 0.9 E 2 6 1 3 1026.3 - 0.0
31/04:00am 8.8 7.5 6.2 84 1.2 NE 2 7 1 4 1026.8 - 0.0
31/03:30am 10.2 8.3 7.4 83 1.4 N 7 9 4 5 1027.0 - 0.0
31/03:02am 10.5 8.1 6.8 78 1.8 S 9 13 5 7 1027.0 - 0.0
31/03:00am 10.6 8.2 7.1 79 1.7 SSE 9 13 5 7 1027.0 1025.3 0.0
31/02:44am 10.0 8.3 7.6 85 1.2 ESE 6 9 3 5 1027.2 - 0.0
31/02:30am 8.2 5.9 5.8 85 1.1 E 7 9 4 5 1027.2 - 0.0
31/02:00am 9.8 7.7 6.5 80 1.6 NE 7 11 4 6 1027.3 - 0.0
31/01:30am 9.8 6.8 5.8 76 1.9 SE 11 15 6 8 1027.2 - 0.0
31/01:00am 10.8 8.1 7.3 79 1.7 SE 11 13 6 7 1027.3 - 0.0
31/12:30am 13.0 11.0 7.0 67 3.0 SSE 7 11 4 6 1027.2 - 0.0
31/12:00am 13.8 11.8 7.1 64 3.3 E 7 11 4 6 1027.1 1025.4 0.0
 
Date/Time
EDT
Tmp

°C
App
Tmp
°C
Dew
Point
°C
Rel
Hum
%
Delta-T

°C
Wind Press
QNH
hPa
Press
MSL
hPa
Rain
since
9 am
mm
Dir
 
Spd
km/h
Gust
km/h
Spd
kts
Gust
kts
30/11:30pm 13.3 10.8 6.6 64 3.3 S 9 11 5 6 1027.1 - 0.0
30/11:00pm 13.7 11.9 7.9 68 3.0 SE 7 7 4 4 1027.0 - 0.0
30/10:30pm 15.3 13.6 8.5 64 3.6 S 7 11 4 6 1027.0 - 0.0
30/10:00pm 14.1 13.0 6.7 61 3.7 ESE 2 7 1 4 1026.7 - 0.0
30/09:30pm 15.1 14.0 6.7 57 4.2 WSW 2 6 1 3 1026.5 - 0.0
30/09:00pm 14.6 12.5 6.7 59 3.9 ENE 7 9 4 5 1026.3 1024.7 0.0
30/08:30pm 15.7 12.4 6.4 54 4.7 ESE 13 13 7 7 1026.0 - 0.0
30/08:00pm 15.0 12.4 6.3 56 4.3 ESE 9 9 5 5 1025.6 - 0.0
30/07:30pm 16.7 14.4 5.9 49 5.4 E 7 9 4 5 1025.2 - 0.0
30/07:00pm 18.2 15.9 5.8 44 6.3 NE 7 9 4 5 1024.9 - 0.0
30/06:30pm 19.2 16.5 5.6 41 6.9 NE 9 11 5 6 1024.5 - 0.0
30/06:00pm 19.8 16.6 5.1 38 7.4 N 11 15 6 8 1024.1 1022.5 0.0
30/05:30pm 20.3 16.7 4.8 36 7.8 N 13 17 7 9 1023.8 - 0.0
30/05:00pm 20.6 17.4 5.0 36 7.9 NNE 11 15 6 8 1023.8 - 0.0
30/04:30pm 20.9 18.0 4.5 34 8.2 NNW 9 11 5 6 1023.6 - 0.0
30/04:00pm 20.9 17.7 4.9 35 8.1 NW 11 15 6 8 1023.6 - 0.0
30/03:30pm 20.6 18.1 5.0 36 7.9 NNE 7 13 4 7 1024.0 - 0.0
30/03:00pm 20.3 17.4 4.8 36 7.7 NNW 9 13 5 7 1024.2 1022.6 0.0
30/02:30pm 19.8 16.5 4.7 37 7.5 N 11 15 6 8 1024.3 - 0.0
30/02:00pm 18.8 15.6 4.9 40 6.9 N 11 15 6 8 1024.5 - 0.0
30/01:30pm 18.2 15.4 5.1 42 6.5 NNW 9 13 5 7 1025.0 - 0.0
30/01:00pm 17.8 15.6 5.1 43 6.3 SSW 6 9 3 5 1025.3 - 0.0
30/12:30pm 17.3 14.3 5.9 47 5.7 SW 11 15 6 8 1025.6 - 0.0
30/12:00pm 15.2 13.3 6.5 56 4.3 W 6 13 3 7 1026.1 1024.5 0.0
30/11:30am 13.8 11.8 6.2 60 3.7 N 6 7 3 4 1026.7 - 0.0
30/11:00am 12.9 10.7 6.3 64 3.2 NNE 7 9 4 5 1026.9 - 0.0
30/10:30am 12.5 10.9 6.3 66 3.0 ESE 4 7 2 4 1027.2 - 0.0
30/10:00am 11.6 9.3 5.9 68 2.7 SE 7 9 4 5 1027.1 - 0.0
30/09:30am 10.7 8.4 5.9 72 2.3 S 7 9 4 5 1027.2 - 0.0
30/09:00am 9.8 7.6 6.0 77 1.8 S 7 9 4 5 1027.0 1025.3 0.0
30/08:30am 8.7 7.6 5.1 78 1.7 CALM 0 7 0 4 1026.9 - 0.0
30/08:00am 8.2 7.0 4.8 79 1.6 CALM 0 0 0 0 1026.4 - 0.0
30/07:30am 7.2 5.9 4.2 81 1.3 CALM 0 0 0 0 1026.0 - 0.0
30/07:00am 7.5 4.9 4.1 79 1.5 N 7 7 4 4 1025.6 - 0.0
30/06:30am 7.0 4.8 3.6 79 1.5 NNE 4 7 2 4 1025.1 - 0.0
30/06:00am 6.8 4.6 3.4 79 1.5 S 4 9 2 5 1024.6 1023.0 0.0
30/05:30am 6.5 4.3 3.3 80 1.4 SW 4 7 2 4 1024.3 - 0.0
30/05:00am 7.1 4.5 4.1 81 1.3 ENE 7 11 4 6 1024.1 - 0.0
30/04:30am 6.5 3.3 3.3 80 1.4 N 9 9 5 5 1024.0 - 0.0
30/04:00am 5.9 3.9 2.2 77 1.6 SSE 2 7 1 4 1023.9 - 0.0
30/03:30am 5.8 2.6 3.0 82 1.2 ESE 9 13 5 7 1023.9 - 0.0
30/03:00am 6.4 4.2 3.2 80 1.4 NE 4 6 2 3 1024.3 1022.7 0.0
30/02:30am 7.1 4.2 2.8 74 1.9 N 7 9 4 5 1024.2 - 0.0
30/02:00am 7.7 5.5 3.2 73 2.0 ESE 4 6 2 3 1024.4 - 0.0
30/01:30am 8.0 6.2 3.5 73 2.0 S 2 7 1 4 1024.4 - 0.0
30/01:00am 8.0 4.8 2.9 70 2.2 E 9 9 5 5 1024.5 - 0.0
30/12:30am 9.5 6.8 3.7 67 2.6 N 7 11 4 6 1024.4 - 0.0
30/12:00am 10.6 8.0 4.1 64 3.0 E 7 7 4 4 1024.3 1022.7 0.0
 
Date/Time
EDT
Tmp

°C
App
Tmp
°C
Dew
Point
°C
Rel
Hum
%
Delta-T

°C
Wind Press
QNH
hPa
Press
MSL
hPa
Rain
since
9 am
mm
Dir
 
Spd
km/h
Gust
km/h
Spd
kts
Gust
kts
29/11:30pm 9.4 6.3 3.6 67 2.6 SE 9 11 5 6 1024.5 - 0.0
29/11:00pm 9.8 6.6 3.1 63 3.0 ESE 9 11 5 6 1024.5 - 0.0
29/10:30pm 12.4 8.5 3.6 55 4.1 ESE 13 15 7 8 1024.5 - 0.0
29/10:00pm 14.1 12.6 3.0 47 5.1 CALM 0 6 0 3 1024.4 - 0.0
29/09:30pm 15.4 11.1 3.2 44 5.7 NE 15 17 8 9 1024.1 - 0.0
29/09:00pm 15.3 11.0 3.1 44 5.7 NNE 15 19 8 10 1023.6 1021.9 0.0
29/08:30pm 15.8 11.4 2.9 42 6.0 N 15 19 8 10 1023.3 - 0.0
29/08:00pm 17.2 12.4 2.8 38 6.8 N 17 20 9 11 1023.0 - 0.0
29/07:30pm 17.7 13.0 3.2 38 6.9 N 17 22 9 12 1022.8 - 0.0
29/07:00pm 18.2 14.1 2.5 35 7.4 N 13 15 7 8 1022.4 - 0.0
29/06:30pm 20.0 15.3 3.3 33 8.1 N 17 20 9 11 1021.8 - 0.0
29/06:00pm 21.3 15.9 2.6 29 9.0 N 20 28 11 15 1021.5 1019.8 0.0
29/05:30pm 21.2 16.0 2.5 29 9.0 N 19 22 10 12 1021.5 - 0.0
29/05:00pm 21.8 16.5 2.0 27 9.5 N 19 26 10 14 1021.4 - 0.0
29/04:30pm 21.6 16.8 2.8 29 9.2 NNW 17 19 9 10 1021.4 - 0.0
29/04:00pm 21.6 16.5 3.3 30 9.0 NNW 19 22 10 12 1021.7 - 0.0
29/03:30pm 21.8 17.7 2.5 28 9.4 NW 13 22 7 12 1021.8 - 0.0
29/03:00pm 22.1 18.2 3.3 29 9.2 NW 13 19 7 10 1022.0 1020.3 0.0
29/02:30pm 22.2 19.0 3.3 29 9.3 N 9 19 5 10 1022.4 - 0.0
29/02:00pm 22.4 19.3 3.5 29 9.4 NW 9 15 5 8 1022.6 - 0.0
29/01:30pm 20.8 17.5 2.6 30 8.8 NE 9 13 5 7 1022.7 - 0.0
29/01:00pm 21.8 18.9 4.4 32 8.8 WNW 9 13 5 7 1023.2 - 0.0
29/12:30pm 20.4 16.7 4.4 35 8.0 W 13 20 7 11 1023.6 - 0.0
29/12:00pm 19.3 17.3 6.4 43 6.6 W 6 13 3 7 1024.0 1022.3 0.0
29/11:30am 17.2 16.4 9.6 61 4.1 WSW 4 11 2 6 1024.2 - 0.0
29/11:00am 14.6 13.2 9.4 71 2.8 NW 7 9 4 5 1024.4 - 0.0
29/10:30am 12.3 11.0 9.9 85 1.3 NW 7 11 4 6 1024.8 - 0.0
29/10:25am 11.8 10.7 9.9 88 1.0 NNW 6 11 3 6 1024.9 - 0.0
29/10:00am 10.3 10.0 10.1 99 0.1 N 2 7 1 4 1024.9 - 0.0
29/09:47am 10.0 9.6 9.9 99 0.1 N 2 7 1 4 1024.9 - 0.0
29/09:42am 9.5 8.3 9.4 99 0.1 N 6 9 3 5 1024.9 - 0.0
29/09:30am 9.4 9.3 9.3 99 0.1 CALM 0 2 0 1 1024.9 - 0.0
29/09:21am 9.1 8.5 9.0 99 0.1 NNE 2 6 1 3 1024.8 - 0.0
29/09:13am 8.9 8.3 8.8 99 0.1 N 2 7 1 4 1024.6 - 0.0
29/09:10am 9.0 8.0 8.9 99 0.1 N 4 7 2 4 1024.6 - 0.0
29/09:00am 8.9 7.3 8.8 99 0.1 N 7 9 4 5 1024.6 1023.0 0.0
29/08:30am 7.9 6.1 7.8 99 0.0 NNW 7 9 4 5 1024.2 - 0.0
29/08:00am 7.2 5.2 7.1 99 0.0 N 7 7 4 4 1023.8 - 0.0
29/07:00am 5.5 3.7 5.4 99 0.0 NNE 4 6 2 3 1023.2 - 0.0
29/06:45am 4.9 3.7 4.8 99 0.0 CALM 0 - 0 - 1023.2 - 0.0
29/06:30am 3.7 2.3 3.4 98 0.1 CALM 0 - 0 - 1023.0 - 0.0
29/06:14am 4.5 3.2 4.2 98 0.1 CALM 0 0 0 0 1022.7 - 0.0
29/06:00am 3.5 1.9 2.5 93 0.4 CALM 0 0 0 0 1022.7 1021.1 0.0
29/05:50am 5.5 4.4 5.2 98 0.1 CALM 0 0 0 0 1022.6 - 0.0
29/05:30am 5.5 4.4 5.1 97 0.2 CALM 0 0 0 0 1022.6 - 0.0
29/05:24am 5.3 4.2 4.9 97 0.2 CALM 0 0 0 0 1022.7 - 0.0
29/05:14am 5.4 4.2 4.8 96 0.3 CALM 0 0 0 0 1022.6 - 0.0
29/05:00am 5.2 4.0 4.5 95 0.3 CALM 0 0 0 0 1022.6 - 0.0
29/04:56am 5.2 3.9 4.3 94 0.4 CALM 0 0 0 0 1022.5 - 0.0
29/04:30am 6.3 5.3 5.6 95 0.3 CALM 0 4 0 2 1022.4 - 0.0
29/04:00am 6.4 4.1 5.8 96 0.3 NNW 7 9 4 5 1022.6 - 0.0
29/03:30am 7.2 6.4 6.6 96 0.3 CALM 0 4 0 2 1022.8 - 0.0
29/03:00am 7.1 6.3 6.5 96 0.3 CALM 0 0 0 0 1023.3 1021.6 0.0
29/02:30am 6.2 5.0 4.7 90 0.7 CALM 0 0 0 0 1023.5 - 0.0
29/02:00am 8.1 7.3 6.6 90 0.7 CALM 0 0 0 0 1023.6 - 0.0
29/01:30am 8.2 7.3 6.2 87 0.9 CALM 0 0 0 0 1023.7 - 0.0
29/01:00am 9.3 7.5 7.1 86 1.1 ESE 6 7 3 4 1023.8 - 0.0
29/12:30am 9.6 8.5 6.7 82 1.4 SSE 2 7 1 4 1023.8 - 0.0
29/12:00am 10.9 8.9 7.0 77 1.9 E 7 11 4 6 1023.9 1022.2 0.0
 
Date/Time
EDT
Tmp

°C
App
Tmp
°C
Dew
Point
°C
Rel
Hum
%
Delta-T

°C
Wind Press
QNH
hPa
Press
MSL
hPa
Rain
since
9 am
mm
Dir
 
Spd
km/h
Gust
km/h
Spd
kts
Gust
kts
28/11:30pm 12.2 10.6 8.1 76 2.1 ESE 6 11 3 6 1023.9 - 0.0
28/11:00pm 12.1 9.5 7.8 75 2.2 ENE 11 15 6 8 1023.9 - 0.0
28/10:30pm 12.4 10.6 7.9 74 2.3 E 7 9 4 5 1024.0 - 0.0
28/10:00pm 12.7 11.4 7.6 71 2.6 WNW 4 9 2 5 1024.0 - 0.0
28/09:30pm 13.5 9.8 7.9 69 2.9 ENE 17 26 9 14 1023.7 - 0.0
28/09:00pm 14.1 10.0 7.9 66 3.2 ENE 19 24 10 13 1023.4 1021.7 0.0
28/08:30pm 14.6 10.1 6.2 57 4.2 ENE 19 22 10 12 1022.7 - 0.0
28/08:00pm 14.0 10.5 1.3 42 5.7 NNE 9 11 5 6 1022.4 - 0.0
28/07:30pm 16.5 12.7 1.8 37 6.8 N 11 13 6 7 1021.8 - 0.0

Latest Capital City Observations: Canberra | Sydney | Melbourne | Brisbane | Adelaide | Perth | Hobart | Darwin

Other Formats:

Comma delimited format used in spreadsheet applications
http://www.bom.gov.au/fwo/IDN60903/IDN60903.94926.axf

JavaScript Object Notation format (JSON) in row-major order
http://www.bom.gov.au/fwo/IDN60903/IDN60903.94926.json